createdAt,value
2022-09-01T00:02:52.838Z,16.79
2022-09-01T00:07:57.156Z,16.63
2022-09-01T00:13:02.969Z,16.55
2022-09-01T00:18:07.104Z,16.40
2022-09-01T00:23:11.352Z,16.45
2022-09-01T00:28:16.879Z,16.39
2022-09-01T00:33:21.249Z,15.92
2022-09-01T00:38:25.435Z,16.04
2022-09-01T00:43:42.375Z,16.13
2022-09-01T00:48:46.654Z,16.07
2022-09-01T00:53:51.467Z,16.07
2022-09-01T00:58:57.138Z,16.14
2022-09-01T01:04:02.604Z,16.29
2022-09-01T01:09:06.957Z,16.26
2022-09-01T01:14:12.477Z,15.79
2022-09-01T01:19:39.109Z,15.74
2022-09-01T01:24:48.562Z,15.56
2022-09-01T01:29:54.975Z,15.21
2022-09-01T01:34:58.998Z,15.66
2022-09-01T01:40:06.616Z,15.65
2022-09-01T01:45:13.059Z,15.86
2022-09-01T01:50:17.513Z,15.83
2022-09-01T01:55:29.779Z,15.89
2022-09-01T02:00:35.766Z,15.73
2022-09-01T02:05:41.616Z,15.62
2022-09-01T02:10:49.881Z,15.34
2022-09-01T02:15:56.950Z,15.29
2022-09-01T02:21:01.448Z,15.63
2022-09-01T02:26:17.277Z,15.78
2022-09-01T02:31:24.953Z,15.91
2022-09-01T02:36:32.912Z,15.39
2022-09-01T02:41:39.507Z,14.85
2022-09-01T02:46:46.508Z,14.97
2022-09-01T02:51:54.240Z,14.97
2022-09-01T02:57:00.544Z,15.02
2022-09-01T03:02:08.406Z,15.49
2022-09-01T03:07:13.918Z,15.65
2022-09-01T03:12:20.037Z,15.56
2022-09-01T03:17:25.098Z,15.66
2022-09-01T03:22:29.783Z,15.52
2022-09-01T03:27:35.266Z,15.36
2022-09-01T03:32:39.674Z,15.14
2022-09-01T03:37:45.216Z,14.71
2022-09-01T03:42:52.825Z,14.67
2022-09-01T03:47:58.045Z,15.04
2022-09-01T03:53:03.309Z,15.37
2022-09-01T03:58:12.555Z,15.18
2022-09-01T04:03:28.470Z,15.30
2022-09-01T04:08:35.958Z,14.86
2022-09-01T04:13:47.502Z,14.91
2022-09-01T04:18:52.511Z,15.21
2022-09-01T04:24:05.343Z,15.35
2022-09-01T04:29:12.943Z,15.34
2022-09-01T04:34:17.214Z,15.40
2022-09-01T04:39:22.299Z,15.24
2022-09-01T04:44:29.023Z,15.09
2022-09-01T04:49:33.901Z,15.41
2022-09-01T04:54:40.148Z,14.95
2022-09-01T04:59:45.909Z,15.40
2022-09-01T05:04:52.567Z,15.50
2022-09-01T05:10:01.099Z,15.58
2022-09-01T05:15:25.613Z,16.08
2022-09-01T05:20:30.456Z,16.38
2022-09-01T05:25:40.881Z,16.69
2022-09-01T05:30:48.707Z,16.98
2022-09-01T05:35:59.091Z,17.33
2022-09-01T05:41:08.793Z,17.43
2022-09-01T05:46:20.782Z,17.17
2022-09-01T05:51:43.906Z,17.31
2022-09-01T05:56:50.935Z,17.45
2022-09-01T06:02:01.103Z,17.58
2022-09-01T06:07:14.675Z,17.66
2022-09-01T06:12:24.306Z,17.94
2022-09-01T06:17:31.873Z,18.31
2022-09-01T06:22:41.188Z,18.61
2022-09-01T06:27:48.363Z,18.90
2022-09-01T06:32:55.211Z,19.41
2022-09-01T06:38:02.122Z,19.51
2022-09-01T06:43:21.988Z,20.02
2022-09-01T06:48:31.045Z,20.32
2022-09-01T06:53:51.264Z,20.78
2022-09-01T06:58:55.650Z,21.34
2022-09-01T07:04:02.902Z,21.41
2022-09-01T07:09:20.069Z,21.63
2022-09-01T07:21:02.749Z,22.63
2022-09-01T07:26:08.531Z,23.01
2022-09-01T07:48:03.494Z,23.97
2022-09-01T07:53:13.218Z,24.20
2022-09-01T07:58:20.012Z,24.37
2022-09-01T08:03:30.043Z,24.79
2022-09-01T08:08:37.501Z,24.94
2022-09-01T08:13:42.209Z,25.28
2022-09-01T08:18:49.343Z,25.85
2022-09-01T08:24:08.274Z,25.75
2022-09-01T08:29:13.699Z,26.24
2022-09-01T08:34:19.963Z,26.32
2022-09-01T08:39:25.454Z,25.39
2022-09-01T08:44:38.523Z,26.05
2022-09-01T08:49:46.405Z,26.09
2022-09-01T08:55:26.134Z,26.89
2022-09-01T09:00:37.128Z,26.01
2022-09-01T09:06:07.180Z,26.83
2022-09-01T09:11:23.801Z,27.43
2022-09-01T09:16:31.944Z,27.52
2022-09-01T09:21:39.514Z,27.43
2022-09-01T09:26:49.869Z,27.35
2022-09-01T09:32:06.706Z,27.99
2022-09-01T09:37:28.701Z,28.17
2022-09-01T09:42:36.665Z,29.29
2022-09-01T09:47:44.906Z,28.88
2022-09-01T09:52:50.816Z,28.61
2022-09-01T09:57:59.715Z,28.45
2022-09-01T10:03:08.007Z,28.63
2022-09-01T10:08:37.542Z,29.02
2022-09-01T10:13:43.158Z,29.16
2022-09-01T10:18:49.661Z,28.01
2022-09-01T10:24:16.092Z,27.45
2022-09-01T10:29:27.111Z,27.90
2022-09-01T10:34:36.708Z,27.71
2022-09-01T10:40:10.664Z,27.24
2022-09-01T10:45:30.337Z,26.79
2022-09-01T10:50:35.667Z,26.21
2022-09-01T10:55:46.405Z,26.23
2022-09-01T11:12:33.824Z,28.00
2022-09-01T11:17:41.241Z,28.73
2022-09-01T11:22:47.808Z,28.98
2022-09-01T11:28:19.530Z,29.18
2022-09-01T11:33:42.384Z,29.64
2022-09-01T11:38:51.481Z,29.33
2022-09-01T11:44:01.343Z,29.03
2022-09-01T11:49:17.465Z,29.14
2022-09-01T11:54:21.692Z,29.00
2022-09-01T11:59:36.517Z,28.69
2022-09-01T12:04:42.400Z,28.51
2022-09-01T12:09:49.241Z,28.66
2022-09-01T12:15:05.684Z,28.65
2022-09-01T12:20:29.803Z,28.33
2022-09-01T12:25:36.288Z,27.78
2022-09-01T12:30:43.729Z,27.51
2022-09-01T12:35:49.765Z,27.37
2022-09-01T12:40:55.492Z,27.16
2022-09-01T12:46:02.879Z,27.01
2022-09-01T12:51:26.528Z,26.61
2022-09-01T12:56:35.444Z,26.44
2022-09-01T13:01:41.100Z,26.40
2022-09-01T13:06:46.748Z,26.52
2022-09-01T13:12:07.693Z,26.36
2022-09-01T13:17:14.145Z,26.23
2022-09-01T13:22:19.934Z,26.21
2022-09-01T13:27:25.002Z,26.66
2022-09-01T13:32:29.275Z,26.98
2022-09-01T13:37:34.940Z,27.00
2022-09-01T13:42:40.185Z,26.75
2022-09-01T13:53:12.531Z,26.74
2022-09-01T13:58:17.395Z,26.66
2022-09-01T14:03:24.161Z,26.83
2022-09-01T14:08:30.205Z,26.81
2022-09-01T14:13:35.493Z,26.81
2022-09-01T14:18:40.843Z,26.71
2022-09-01T14:23:46.882Z,26.57
2022-09-01T14:28:51.273Z,26.71
2022-09-01T14:33:55.476Z,26.72
2022-09-01T14:39:01.116Z,26.65
2022-09-01T14:44:07.070Z,26.60
2022-09-01T14:49:11.926Z,26.58
2022-09-01T14:54:17.484Z,26.54
2022-09-01T14:59:21.580Z,26.43
2022-09-01T15:04:26.388Z,26.38
2022-09-01T15:09:32.216Z,26.25
2022-09-01T15:14:38.146Z,25.97
2022-09-01T15:19:42.324Z,26.13
2022-09-01T15:24:49.381Z,25.78
2022-09-01T15:29:56.289Z,25.82
2022-09-01T15:35:00.567Z,25.66
2022-09-01T15:40:08.334Z,25.59
2022-09-01T15:45:15.050Z,25.15
2022-09-01T15:50:22.625Z,24.93
2022-09-01T15:55:31.008Z,24.93
2022-09-01T16:00:35.364Z,24.78
2022-09-01T16:05:43.337Z,24.70
2022-09-01T16:10:49.096Z,24.49
2022-09-01T16:16:07.541Z,24.23
2022-09-01T16:21:19.463Z,23.96
2022-09-01T16:26:25.348Z,24.10
2022-09-01T16:31:33.293Z,23.65
2022-09-01T16:36:46.221Z,23.62
2022-09-01T16:41:59.990Z,23.31
2022-09-01T16:47:13.852Z,23.24
2022-09-01T16:52:23.982Z,23.21
2022-09-01T16:57:38.620Z,23.34
2022-09-01T17:02:52.982Z,23.11
2022-09-01T17:08:07.791Z,23.24
2022-09-01T17:13:24.220Z,23.04
2022-09-01T17:18:38.592Z,22.83
2022-09-01T17:23:51.097Z,22.76
2022-09-01T17:28:59.977Z,22.74
2022-09-01T17:34:14.466Z,22.70
2022-09-01T17:39:32.324Z,22.69
2022-09-01T17:44:46.627Z,22.53
2022-09-01T17:50:00.415Z,22.49
2022-09-01T17:55:14.785Z,22.60
2022-09-01T18:00:24.583Z,22.58
2022-09-01T18:05:30.746Z,22.61
2022-09-01T18:10:40.559Z,22.65
2022-09-01T18:15:52.543Z,22.57
2022-09-01T18:21:03.650Z,22.52
2022-09-01T18:26:18.187Z,22.37
2022-09-01T18:31:50.641Z,22.33
2022-09-01T18:37:01.255Z,22.52
2022-09-01T18:42:15.885Z,22.54
2022-09-01T18:47:31.570Z,22.33
2022-09-01T18:52:54.248Z,22.29
2022-09-01T18:58:04.865Z,22.32
2022-09-01T19:03:19.955Z,22.31
2022-09-01T19:08:37.890Z,22.07
2022-09-01T19:13:55.069Z,21.94
2022-09-01T19:19:08.687Z,21.91
2022-09-01T19:24:24.917Z,21.97
2022-09-01T19:29:35.208Z,22.19
2022-09-01T19:34:52.061Z,22.30
2022-09-01T19:39:57.228Z,21.90
2022-09-01T19:45:10.151Z,21.93
2022-09-01T19:50:25.290Z,21.54
2022-09-01T19:55:35.827Z,21.24
2022-09-01T20:00:51.120Z,21.17
2022-09-01T20:06:01.476Z,21.07
2022-09-01T20:11:12.061Z,21.30
2022-09-01T20:16:27.809Z,20.93
2022-09-01T20:21:40.158Z,21.02
2022-09-01T20:26:49.692Z,21.33
2022-09-01T20:31:58.101Z,21.22
2022-09-01T20:37:07.572Z,21.47
2022-09-01T20:42:16.912Z,21.04
2022-09-01T20:47:23.328Z,20.81
2022-09-01T20:52:40.202Z,20.92
2022-09-01T20:57:51.306Z,21.09
2022-09-01T21:03:04.331Z,21.07
2022-09-01T21:08:29.866Z,21.35
2022-09-01T21:13:52.360Z,21.21
2022-09-01T21:19:04.872Z,21.03
2022-09-01T21:24:10.431Z,21.24
2022-09-01T21:29:28.922Z,21.36
2022-09-01T21:34:33.071Z,21.01
2022-09-01T21:39:38.916Z,21.07
2022-09-01T21:44:44.696Z,21.08
2022-09-01T21:49:49.150Z,21.10
2022-09-01T21:54:55.117Z,21.29
2022-09-01T21:59:59.198Z,21.34
2022-09-01T22:05:06.028Z,21.09
2022-09-01T22:10:14.458Z,20.83
2022-09-01T22:15:21.481Z,20.60
2022-09-01T22:20:28.689Z,20.55
2022-09-01T22:25:35.788Z,20.27
2022-09-01T22:30:46.079Z,19.99
2022-09-01T22:35:52.301Z,20.03
2022-09-01T22:40:59.636Z,20.31
2022-09-01T22:46:07.519Z,20.10
2022-09-01T22:51:13.543Z,20.07
2022-09-01T22:56:26.270Z,20.01
2022-09-01T23:01:33.123Z,19.98
2022-09-01T23:06:42.127Z,19.87
2022-09-01T23:11:49.307Z,19.80
2022-09-01T23:16:53.392Z,19.74
2022-09-01T23:21:57.418Z,19.73
2022-09-01T23:27:03.282Z,19.82
2022-09-01T23:32:07.592Z,19.68
2022-09-01T23:37:11.741Z,19.52
2022-09-01T23:42:17.136Z,19.71
2022-09-01T23:47:21.323Z,19.88
2022-09-01T23:52:25.502Z,19.64
2022-09-01T23:57:31.314Z,19.65
